sensor_id;sensor_type;location;lat;lon;timestamp;pressure;altitude;pressure_sealevel;temperature;humidity
39699;BME280;25372;50.582;12.250;2024-03-02T00:04:15;98700.28;;;6.54;100.00
39699;BME280;25372;50.582;12.250;2024-03-02T00:14:38;98683.09;;;6.78;100.00
39699;BME280;25372;50.582;12.250;2024-03-02T00:25:00;98682.03;;;6.67;100.00
39699;BME280;25372;50.582;12.250;2024-03-02T00:35:23;98683.41;;;6.86;100.00
39699;BME280;25372;50.582;12.250;2024-03-02T00:45:44;98688.00;;;6.82;100.00
39699;BME280;25372;50.582;12.250;2024-03-02T00:56:09;98687.06;;;6.83;100.00
39699;BME280;25372;50.582;12.250;2024-03-02T01:06:31;98695.19;;;6.79;100.00
39699;BME280;25372;50.582;12.250;2024-03-02T01:16:53;98691.63;;;6.67;100.00
39699;BME280;25372;50.582;12.250;2024-03-02T01:27:15;98683.16;;;6.63;100.00
39699;BME280;25372;50.582;12.250;2024-03-02T01:37:38;98675.84;;;6.55;100.00
39699;BME280;25372;50.582;12.250;2024-03-02T01:47:59;98677.88;;;6.65;100.00
39699;BME280;25372;50.582;12.250;2024-03-02T01:58:21;98679.09;;;6.59;100.00
39699;BME280;25372;50.582;12.250;2024-03-02T02:08:42;98674.63;;;6.61;100.00
39699;BME280;25372;50.582;12.250;2024-03-02T02:19:05;98667.19;;;6.55;100.00
39699;BME280;25372;50.582;12.250;2024-03-02T02:29:28;98667.19;;;6.55;100.00
39699;BME280;25372;50.582;12.250;2024-03-02T02:39:49;98668.84;;;6.56;100.00
39699;BME280;25372;50.582;12.250;2024-03-02T02:50:12;98665.28;;;6.57;100.00
39699;BME280;25372;50.582;12.250;2024-03-02T03:00:33;98659.38;;;6.68;100.00
39699;BME280;25372;50.582;12.250;2024-03-02T03:10:56;98652.38;;;6.55;100.00
39699;BME280;25372;50.582;12.250;2024-03-02T03:21:17;98653.47;;;6.38;100.00
39699;BME280;25372;50.582;12.250;2024-03-02T03:31:39;98652.03;;;6.47;100.00
39699;BME280;25372;50.582;12.250;2024-03-02T03:42:00;98653.03;;;6.32;100.00
39699;BME280;25372;50.582;12.250;2024-03-02T03:52:23;98638.97;;;6.07;100.00
39699;BME280;25372;50.582;12.250;2024-03-02T04:02:44;98637.66;;;6.14;100.00
39699;BME280;25372;50.582;12.250;2024-03-02T04:13:07;98660.56;;;6.09;100.00
39699;BME280;25372;50.582;12.250;2024-03-02T04:23:28;98666.22;;;6.15;100.00
39699;BME280;25372;50.582;12.250;2024-03-02T04:33:50;98665.47;;;6.41;100.00
39699;BME280;25372;50.582;12.250;2024-03-02T04:44:12;98681.19;;;6.26;100.00
39699;BME280;25372;50.582;12.250;2024-03-02T04:54:34;98690.09;;;6.37;100.00
39699;BME280;25372;50.582;12.250;2024-03-02T05:05:16;98706.38;;;6.40;100.00
39699;BME280;25372;50.582;12.250;2024-03-02T05:15:39;98718.91;;;6.48;100.00
39699;BME280;25372;50.582;12.250;2024-03-02T05:26:00;98723.16;;;6.36;100.00
39699;BME280;25372;50.582;12.250;2024-03-02T05:36:22;98734.81;;;6.31;100.00
39699;BME280;25372;50.582;12.250;2024-03-02T05:46:43;98746.72;;;6.35;100.00
39699;BME280;25372;50.582;12.250;2024-03-02T05:57:06;98763.31;;;6.34;100.00
39699;BME280;25372;50.582;12.250;2024-03-02T06:07:48;98770.84;;;6.38;100.00
39699;BME280;25372;50.582;12.250;2024-03-02T06:18:11;98784.44;;;6.29;100.00
39699;BME280;25372;50.582;12.250;2024-03-02T06:28:32;98778.38;;;6.43;100.00
39699;BME280;25372;50.582;12.250;2024-03-02T06:38:55;98788.97;;;6.40;100.00
39699;BME280;25372;50.582;12.250;2024-03-02T06:49:16;98798.59;;;6.39;100.00
39699;BME280;25372;50.582;12.250;2024-03-02T06:59:39;98824.56;;;6.41;100.00
39699;BME280;25372;50.582;12.250;2024-03-02T07:10:01;98828.25;;;6.51;100.00
39699;BME280;25372;50.582;12.250;2024-03-02T07:20:24;98831.50;;;6.69;100.00
39699;BME280;25372;50.582;12.250;2024-03-02T07:30:45;98829.06;;;6.66;100.00
39699;BME280;25372;50.582;12.250;2024-03-02T07:41:08;98842.81;;;6.83;100.00
39699;BME280;25372;50.582;12.250;2024-03-02T07:51:31;98854.44;;;6.92;100.00
39699;BME280;25372;50.582;12.250;2024-03-02T08:01:53;98863.72;;;7.10;100.00
39699;BME280;25372;50.582;12.250;2024-03-02T08:12:15;98864.13;;;7.45;100.00
39699;BME280;25372;50.582;12.250;2024-03-02T08:22:38;98884.72;;;7.62;100.00
39699;BME280;25372;50.582;12.250;2024-03-02T08:32:59;98888.63;;;7.95;100.00
39699;BME280;25372;50.582;12.250;2024-03-02T08:43:22;98901.38;;;8.13;100.00
39699;BME280;25372;50.582;12.250;2024-03-02T08:53:43;98901.34;;;8.39;100.00
39699;BME280;25372;50.582;12.250;2024-03-02T09:04:06;98895.13;;;9.16;96.69
39699;BME280;25372;50.582;12.250;2024-03-02T09:14:27;98892.41;;;10.35;88.23
39699;BME280;25372;50.582;12.250;2024-03-02T09:24:50;98895.88;;;10.01;89.32
39699;BME280;25372;50.582;12.250;2024-03-02T09:35:11;98904.94;;;10.08;88.42
39699;BME280;25372;50.582;12.250;2024-03-02T09:45:34;98921.28;;;10.24;88.77
39699;BME280;25372;50.582;12.250;2024-03-02T09:55:55;98910.69;;;10.82;86.31
39699;BME280;25372;50.582;12.250;2024-03-02T10:06:22;98909.47;;;10.06;87.04
39699;BME280;25372;50.582;12.250;2024-03-02T10:16:44;98898.25;;;10.04;86.85
39699;BME280;25372;50.582;12.250;2024-03-02T10:27:09;98885.66;;;9.62;88.05
39699;BME280;25372;50.582;12.250;2024-03-02T10:37:30;98881.34;;;10.43;85.79
39699;BME280;25372;50.582;12.250;2024-03-02T10:47:53;98872.38;;;11.24;81.06
39699;BME280;25372;50.582;12.250;2024-03-02T10:58:15;98860.66;;;12.13;78.51
39699;BME280;25372;50.582;12.250;2024-03-02T11:08:38;98863.66;;;12.39;75.26
39699;BME280;25372;50.582;12.250;2024-03-02T11:19:03;98844.00;;;12.53;75.15
39699;BME280;25372;50.582;12.250;2024-03-02T11:29:43;98848.97;;;12.47;72.97
39699;BME280;25372;50.582;12.250;2024-03-02T11:40:06;98846.94;;;11.67;73.14
39699;BME280;25372;50.582;12.250;2024-03-02T11:50:33;98841.88;;;12.37;72.09
39699;BME280;25372;50.582;12.250;2024-03-02T12:00:55;98841.88;;;12.88;71.14
39699;BME280;25372;50.582;12.250;2024-03-02T12:11:20;98829.81;;;12.76;68.03
39699;BME280;25372;50.582;12.250;2024-03-02T12:21:41;98835.72;;;12.17;69.58
39699;BME280;25372;50.582;12.250;2024-03-02T12:32:05;98827.03;;;12.26;69.53
39699;BME280;25372;50.582;12.250;2024-03-02T12:42:26;98817.00;;;11.89;71.69
39699;BME280;25372;50.582;12.250;2024-03-02T12:52:53;98806.56;;;11.78;70.75
39699;BME280;25372;50.582;12.250;2024-03-02T13:03:23;98801.94;;;11.91;70.82
39699;BME280;25372;50.582;12.250;2024-03-02T13:13:45;98812.97;;;11.85;70.40
39699;BME280;25372;50.582;12.250;2024-03-02T13:24:08;98811.28;;;11.53;70.94
39699;BME280;25372;50.582;12.250;2024-03-02T13:34:29;98811.31;;;11.84;70.54
39699;BME280;25372;50.582;12.250;2024-03-02T13:44:52;98814.88;;;11.73;70.22
39699;BME280;25372;50.582;12.250;2024-03-02T13:55:13;98814.81;;;11.94;68.37
39699;BME280;25372;50.582;12.250;2024-03-02T14:05:36;98810.44;;;11.31;69.96
39699;BME280;25372;50.582;12.250;2024-03-02T14:15:57;98813.31;;;11.28;72.52
39699;BME280;25372;50.582;12.250;2024-03-02T14:26:20;98819.72;;;10.81;74.39
39699;BME280;25372;50.582;12.250;2024-03-02T14:36:41;98822.53;;;10.45;73.41
39699;BME280;25372;50.582;12.250;2024-03-02T14:47:05;98821.84;;;10.87;73.51
39699;BME280;25372;50.582;12.250;2024-03-02T14:57:27;98809.63;;;10.65;74.50
39699;BME280;25372;50.582;12.250;2024-03-02T15:07:49;98806.03;;;10.66;73.86
39699;BME280;25372;50.582;12.250;2024-03-02T15:18:10;98795.97;;;10.71;74.77
39699;BME280;25372;50.582;12.250;2024-03-02T15:28:33;98794.50;;;10.34;75.06
39699;BME280;25372;50.582;12.250;2024-03-02T15:38:54;98797.63;;;9.94;75.64
39699;BME280;25372;50.582;12.250;2024-03-02T15:49:17;98788.91;;;9.82;76.19
39699;BME280;25372;50.582;12.250;2024-03-02T15:59:38;98778.53;;;9.58;75.96
39699;BME280;25372;50.582;12.250;2024-03-02T16:10:00;98779.09;;;9.50;76.99
39699;BME280;25372;50.582;12.250;2024-03-02T16:20:26;98788.84;;;9.01;79.27
39699;BME280;25372;50.582;12.250;2024-03-02T16:30:48;98778.94;;;8.93;80.37
39699;BME280;25372;50.582;12.250;2024-03-02T16:41:09;98782.28;;;8.95;79.49
39699;BME280;25372;50.582;12.250;2024-03-02T16:51:38;98795.44;;;8.82;81.74
39699;BME280;25372;50.582;12.250;2024-03-02T17:01:59;98798.97;;;8.70;82.21
39699;BME280;25372;50.582;12.250;2024-03-02T17:12:21;98809.75;;;8.65;82.44
39699;BME280;25372;50.582;12.250;2024-03-02T17:22:42;98811.25;;;8.43;85.17
39699;BME280;25372;50.582;12.250;2024-03-02T17:33:04;98816.03;;;8.62;82.28
39699;BME280;25372;50.582;12.250;2024-03-02T17:43:26;98814.19;;;8.51;83.92
39699;BME280;25372;50.582;12.250;2024-03-02T17:53:48;98805.50;;;7.75;86.42
39699;BME280;25372;50.582;12.250;2024-03-02T18:04:11;98786.91;;;7.00;89.98
39699;BME280;25372;50.582;12.250;2024-03-02T18:14:34;98791.25;;;6.32;94.62
39699;BME280;25372;50.582;12.250;2024-03-02T18:24:55;98788.59;;;6.04;96.91
39699;BME280;25372;50.582;12.250;2024-03-02T18:35:17;98771.94;;;5.47;100.00
39699;BME280;25372;50.582;12.250;2024-03-02T18:45:38;98777.63;;;5.39;100.00
39699;BME280;25372;50.582;12.250;2024-03-02T18:56:00;98779.53;;;5.66;100.00
39699;BME280;25372;50.582;12.250;2024-03-02T19:06:23;98766.06;;;5.29;100.00
39699;BME280;25372;50.582;12.250;2024-03-02T19:16:45;98765.97;;;5.16;100.00
39699;BME280;25372;50.582;12.250;2024-03-02T19:27:06;98760.38;;;5.08;100.00
39699;BME280;25372;50.582;12.250;2024-03-02T19:37:29;98763.84;;;4.92;100.00
39699;BME280;25372;50.582;12.250;2024-03-02T19:47:50;98756.09;;;5.07;100.00
39699;BME280;25372;50.582;12.250;2024-03-02T19:58:12;98750.97;;;4.74;100.00
39699;BME280;25372;50.582;12.250;2024-03-02T20:08:33;98737.88;;;4.76;100.00
39699;BME280;25372;50.582;12.250;2024-03-02T20:18:55;98729.94;;;4.94;100.00
39699;BME280;25372;50.582;12.250;2024-03-02T20:29:17;98722.00;;;5.11;100.00
39699;BME280;25372;50.582;12.250;2024-03-02T20:39:39;98709.72;;;5.13;100.00
39699;BME280;25372;50.582;12.250;2024-03-02T20:50:00;98711.19;;;5.17;100.00
39699;BME280;25372;50.582;12.250;2024-03-02T21:00:22;98707.31;;;5.25;100.00
39699;BME280;25372;50.582;12.250;2024-03-02T21:10:43;98700.69;;;5.04;100.00
39699;BME280;25372;50.582;12.250;2024-03-02T21:21:06;98701.31;;;4.63;100.00
39699;BME280;25372;50.582;12.250;2024-03-02T21:31:27;98692.91;;;4.74;100.00
39699;BME280;25372;50.582;12.250;2024-03-02T21:41:49;98703.53;;;4.55;100.00
39699;BME280;25372;50.582;12.250;2024-03-02T21:52:11;98696.25;;;4.13;100.00
39699;BME280;25372;50.582;12.250;2024-03-02T22:02:34;98697.63;;;4.04;100.00
39699;BME280;25372;50.582;12.250;2024-03-02T22:12:55;98680.69;;;3.97;100.00
39699;BME280;25372;50.582;12.250;2024-03-02T22:23:17;98675.34;;;4.00;100.00
39699;BME280;25372;50.582;12.250;2024-03-02T22:33:38;98682.94;;;3.71;100.00
39699;BME280;25372;50.582;12.250;2024-03-02T22:44:01;98680.75;;;3.63;100.00
39699;BME280;25372;50.582;12.250;2024-03-02T22:54:22;98675.75;;;3.60;100.00
39699;BME280;25372;50.582;12.250;2024-03-02T23:04:45;98670.38;;;2.96;100.00
39699;BME280;25372;50.582;12.250;2024-03-02T23:15:07;98670.84;;;3.20;100.00
39699;BME280;25372;50.582;12.250;2024-03-02T23:25:30;98664.34;;;2.96;100.00
39699;BME280;25372;50.582;12.250;2024-03-02T23:35:51;98661.09;;;2.74;100.00
39699;BME280;25372;50.582;12.250;2024-03-02T23:46:14;98633.78;;;2.85;100.00
39699;BME280;25372;50.582;12.250;2024-03-02T23:56:35;98612.94;;;2.86;100.00
